sensor_id;sensor_type;location;lat;lon;timestamp;pressure;altitude;pressure_sealevel;temperature;humidity
67397;BME280;57728;50.448;18.824;2023-05-03T00:00:43;98438.13;;;13.27;67.34
67397;BME280;57728;50.448;18.824;2023-05-03T00:02:45;98318.34;;;12.52;67.29
67397;BME280;57728;50.448;18.824;2023-05-03T00:04:46;98416.84;;;13.17;67.21
67397;BME280;57728;50.448;18.824;2023-05-03T00:06:52;98402.81;;;13.01;67.19
67397;BME280;57728;50.448;18.824;2023-05-03T00:08:53;98466.31;;;13.51;67.21
67397;BME280;57728;50.448;18.824;2023-05-03T00:10:58;98377.63;;;12.87;67.19
67397;BME280;57728;50.448;18.824;2023-05-03T00:13:02;98462.16;;;13.48;67.33
67397;BME280;57728;50.448;18.824;2023-05-03T00:15:04;98477.97;;;13.58;66.93
67397;BME280;57728;50.448;18.824;2023-05-03T00:17:07;98446.09;;;13.40;67.03
67397;BME280;57728;50.448;18.824;2023-05-03T00:19:09;98448.84;;;13.40;66.83
67397;BME280;57728;50.448;18.824;2023-05-03T00:21:12;98477.97;;;13.58;67.25
67397;BME280;57728;50.448;18.824;2023-05-03T00:23:13;98479.63;;;13.59;66.87
67397;BME280;57728;50.448;18.824;2023-05-03T00:25:15;98456.34;;;13.45;67.28
67397;BME280;57728;50.448;18.824;2023-05-03T00:27:20;98404.94;;;13.23;67.21
67397;BME280;57728;50.448;18.824;2023-05-03T00:29:21;98447.66;;;13.48;67.33
67397;BME280;57728;50.448;18.824;2023-05-03T00:31:23;98443.38;;;13.52;67.28
67397;BME280;57728;50.448;18.824;2023-05-03T00:33:25;98345.91;;;12.86;66.99
67397;BME280;57728;50.448;18.824;2023-05-03T00:35:26;98417.56;;;13.24;67.26
67397;BME280;57728;50.448;18.824;2023-05-03T00:37:28;98447.03;;;13.46;67.55
67397;BME280;57728;50.448;18.824;2023-05-03T00:39:34;98474.88;;;13.66;67.41
67397;BME280;57728;50.448;18.824;2023-05-03T00:41:39;98473.56;;;13.69;67.33
67397;BME280;57728;50.448;18.824;2023-05-03T00:43:42;98461.53;;;13.58;67.37
67397;BME280;57728;50.448;18.824;2023-05-03T00:45:43;98411.63;;;13.39;67.53
67397;BME280;57728;50.448;18.824;2023-05-03T00:47:46;98407.00;;;13.39;67.60
67397;BME280;57728;50.448;18.824;2023-05-03T00:49:48;98325.94;;;12.86;67.42
67397;BME280;57728;50.448;18.824;2023-05-03T00:51:51;98447.13;;;13.74;67.12
67397;BME280;57728;50.448;18.824;2023-05-03T00:53:53;98418.59;;;13.58;67.17
67397;BME280;57728;50.448;18.824;2023-05-03T00:55:58;98321.81;;;12.95;67.13
67397;BME280;57728;50.448;18.824;2023-05-03T00:58:00;98426.22;;;13.56;67.09
67397;BME280;57728;50.448;18.824;2023-05-03T01:00:02;98405.78;;;13.47;67.40
67397;BME280;57728;50.448;18.824;2023-05-03T01:02:04;98437.06;;;13.63;67.27
67397;BME280;57728;50.448;18.824;2023-05-03T01:04:06;98375.72;;;13.23;67.53
67397;BME280;57728;50.448;18.824;2023-05-03T01:09:01;98475.78;;;13.84;67.63
67397;BME280;57728;50.448;18.824;2023-05-03T01:11:22;98472.78;;;13.85;67.66
67397;BME280;57728;50.448;18.824;2023-05-03T01:14:05;98417.91;;;13.51;67.90
67397;BME280;57728;50.448;18.824;2023-05-03T01:16:34;98476.97;;;13.88;67.84
67397;BME280;57728;50.448;18.824;2023-05-03T01:18:41;98457.34;;;13.79;67.73
67397;BME280;57728;50.448;18.824;2023-05-03T01:20:54;98416.84;;;13.52;67.97
67397;BME280;57728;50.448;18.824;2023-05-03T01:25:10;98475.84;;;14.01;68.15
67397;BME280;57728;50.448;18.824;2023-05-03T01:27:13;98390.72;;;13.45;68.26
67397;BME280;57728;50.448;18.824;2023-05-03T01:29:14;98476.69;;;14.01;68.31
67397;BME280;57728;50.448;18.824;2023-05-03T01:31:58;98470.03;;;13.97;68.36
67397;BME280;57728;50.448;18.824;2023-05-03T01:34:40;98416.59;;;13.66;68.33
67397;BME280;57728;50.448;18.824;2023-05-03T01:36:55;98358.09;;;13.31;67.92
67397;BME280;57728;50.448;18.824;2023-05-03T01:39:06;98448.06;;;13.80;67.91
67397;BME280;57728;50.448;18.824;2023-05-03T01:41:17;98488.34;;;14.08;67.99
67397;BME280;57728;50.448;18.824;2023-05-03T01:43:21;98485.16;;;14.00;68.00
67397;BME280;57728;50.448;18.824;2023-05-03T01:45:25;98380.47;;;13.28;68.44
67397;BME280;57728;50.448;18.824;2023-05-03T01:47:27;98393.81;;;13.36;68.24
67397;BME280;57728;50.448;18.824;2023-05-03T01:49:28;98439.28;;;13.66;68.17
67397;BME280;57728;50.448;18.824;2023-05-03T01:51:30;98402.00;;;13.36;68.31
67397;BME280;57728;50.448;18.824;2023-05-03T01:53:32;98331.53;;;12.91;68.32
67397;BME280;57728;50.448;18.824;2023-05-03T01:55:33;98520.38;;;13.96;68.55
67397;BME280;57728;50.448;18.824;2023-05-03T01:57:34;98472.59;;;13.75;68.63
67397;BME280;57728;50.448;18.824;2023-05-03T01:59:37;98414.00;;;13.35;68.75
67397;BME280;57728;50.448;18.824;2023-05-03T02:01:38;98498.03;;;13.87;68.93
67397;BME280;57728;50.448;18.824;2023-05-03T02:03:44;98435.03;;;13.47;68.94
67397;BME280;57728;50.448;18.824;2023-05-03T02:05:47;98309.47;;;12.57;68.98
67397;BME280;57728;50.448;18.824;2023-05-03T02:07:48;98368.13;;;12.90;69.11
67397;BME280;57728;50.448;18.824;2023-05-03T02:09:50;98359.22;;;12.83;69.35
67397;BME280;57728;50.448;18.824;2023-05-03T02:11:52;98441.19;;;13.30;69.70
67397;BME280;57728;50.448;18.824;2023-05-03T02:13:53;98501.03;;;13.62;69.81
67397;BME280;57728;50.448;18.824;2023-05-03T02:15:54;98412.47;;;13.04;69.83
67397;BME280;57728;50.448;18.824;2023-05-03T02:17:58;98475.19;;;13.34;69.75
67397;BME280;57728;50.448;18.824;2023-05-03T02:20:03;98368.72;;;12.68;69.99
67397;BME280;57728;50.448;18.824;2023-05-03T02:22:10;98501.25;;;13.49;69.90
67397;BME280;57728;50.448;18.824;2023-05-03T02:24:12;98514.34;;;13.47;70.03
67397;BME280;57728;50.448;18.824;2023-05-03T02:26:13;98492.69;;;13.33;70.16
67397;BME280;57728;50.448;18.824;2023-05-03T02:28:15;98487.09;;;13.28;70.40
67397;BME280;57728;50.448;18.824;2023-05-03T02:30:17;98487.44;;;13.20;70.56
67397;BME280;57728;50.448;18.824;2023-05-03T02:32:18;98461.56;;;13.11;70.57
67397;BME280;57728;50.448;18.824;2023-05-03T02:34:22;98463.91;;;13.07;70.17
67397;BME280;57728;50.448;18.824;2023-05-03T02:36:26;98479.00;;;13.10;70.67
67397;BME280;57728;50.448;18.824;2023-05-03T02:38:28;98491.72;;;13.16;70.76
67397;BME280;57728;50.448;18.824;2023-05-03T02:40:29;98462.81;;;12.96;70.75
67397;BME280;57728;50.448;18.824;2023-05-03T02:42:32;98510.28;;;13.25;70.83
67397;BME280;57728;50.448;18.824;2023-05-03T02:44:34;98343.59;;;12.24;70.92
67397;BME280;57728;50.448;18.824;2023-05-03T02:46:35;98514.06;;;13.24;71.06
67397;BME280;57728;50.448;18.824;2023-05-03T02:48:37;98459.72;;;12.81;70.74
67397;BME280;57728;50.448;18.824;2023-05-03T02:50:38;98491.97;;;13.02;71.33
67397;BME280;57728;50.448;18.824;2023-05-03T02:52:40;98405.56;;;12.35;71.15
67397;BME280;57728;50.448;18.824;2023-05-03T02:54:42;98449.16;;;12.72;71.62
67397;BME280;57728;50.448;18.824;2023-05-03T02:56:45;98509.41;;;13.01;71.56
67397;BME280;57728;50.448;18.824;2023-05-03T02:58:47;98457.19;;;12.67;71.56
67397;BME280;57728;50.448;18.824;2023-05-03T03:00:49;98472.78;;;12.79;71.81
67397;BME280;57728;50.448;18.824;2023-05-03T03:02:52;98457.19;;;12.67;71.80
67397;BME280;57728;50.448;18.824;2023-05-03T03:04:54;98482.66;;;12.80;71.80
67397;BME280;57728;50.448;18.824;2023-05-03T03:06:58;98500.84;;;12.86;72.12
67397;BME280;57728;50.448;18.824;2023-05-03T03:08:59;98450.16;;;12.60;72.06
67397;BME280;57728;50.448;18.824;2023-05-03T03:11:01;98491.81;;;12.85;72.20
67397;BME280;57728;50.448;18.824;2023-05-03T03:13:04;98430.44;;;12.46;72.01
67397;BME280;57728;50.448;18.824;2023-05-03T03:15:11;98389.50;;;12.15;72.11
67397;BME280;57728;50.448;18.824;2023-05-03T03:17:13;98471.81;;;12.61;72.10
67397;BME280;57728;50.448;18.824;2023-05-03T03:19:15;98479.06;;;12.67;71.97
67397;BME280;57728;50.448;18.824;2023-05-03T03:21:16;98521.97;;;12.90;72.13
67397;BME280;57728;50.448;18.824;2023-05-03T03:23:17;98491.66;;;12.68;72.21
67397;BME280;57728;50.448;18.824;2023-05-03T03:25:19;98457.75;;;12.46;72.07
67397;BME280;57728;50.448;18.824;2023-05-03T03:27:21;98462.50;;;12.50;72.18
67397;BME280;57728;50.448;18.824;2023-05-03T03:29:23;98509.69;;;12.69;71.93
67397;BME280;57728;50.448;18.824;2023-05-03T03:31:26;98480.31;;;12.53;72.19
67397;BME280;57728;50.448;18.824;2023-05-03T03:33:30;98413.09;;;12.10;72.04
67397;BME280;57728;50.448;18.824;2023-05-03T03:35:39;98529.34;;;12.78;72.07
67397;BME280;57728;50.448;18.824;2023-05-03T03:37:44;98532.28;;;12.77;72.26
67397;BME280;57728;50.448;18.824;2023-05-03T03:39:47;98468.13;;;12.37;72.14
67397;BME280;57728;50.448;18.824;2023-05-03T03:41:52;98506.09;;;12.57;72.22
67397;BME280;57728;50.448;18.824;2023-05-03T03:43:54;98529.44;;;12.71;72.36
67397;BME280;57728;50.448;18.824;2023-05-03T03:45:55;98455.50;;;12.24;72.28
67397;BME280;57728;50.448;18.824;2023-05-03T03:47:57;98509.28;;;12.54;72.40
67397;BME280;57728;50.448;18.824;2023-05-03T03:49:59;98515.34;;;12.56;72.47
67397;BME280;57728;50.448;18.824;2023-05-03T03:52:05;98510.84;;;12.50;72.40
67397;BME280;57728;50.448;18.824;2023-05-03T03:54:10;98497.34;;;12.36;72.75
67397;BME280;57728;50.448;18.824;2023-05-03T03:56:17;98531.75;;;12.56;72.65
67397;BME280;57728;50.448;18.824;2023-05-03T03:58:20;98480.94;;;12.25;72.49
67397;BME280;57728;50.448;18.824;2023-05-03T04:00:25;98531.59;;;12.51;72.51
67397;BME280;57728;50.448;18.824;2023-05-03T04:02:37;98517.66;;;12.41;72.53
67397;BME280;57728;50.448;18.824;2023-05-03T04:04:41;98546.09;;;12.51;72.61
67397;BME280;57728;50.448;18.824;2023-05-03T04:06:43;98536.69;;;12.47;72.69
67397;BME280;57728;50.448;18.824;2023-05-03T04:08:48;98527.53;;;12.42;72.79
67397;BME280;57728;50.448;18.824;2023-05-03T04:10:50;98538.59;;;12.47;72.79
67397;BME280;57728;50.448;18.824;2023-05-03T04:12:54;98554.88;;;12.53;72.96
67397;BME280;57728;50.448;18.824;2023-05-03T04:14:59;98540.09;;;12.43;72.73
67397;BME280;57728;50.448;18.824;2023-05-03T04:17:01;98542.84;;;12.43;72.77
67397;BME280;57728;50.448;18.824;2023-05-03T04:19:03;98569.38;;;12.54;73.01
67397;BME280;57728;50.448;18.824;2023-05-03T04:21:11;98519.81;;;12.20;72.48
67397;BME280;57728;50.448;18.824;2023-05-03T04:23:14;98578.03;;;12.51;72.26
67397;BME280;57728;50.448;18.824;2023-05-03T04:25:15;98495.97;;;11.97;72.40
67397;BME280;57728;50.448;18.824;2023-05-03T04:27:27;98575.59;;;12.43;72.33
67397;BME280;57728;50.448;18.824;2023-05-03T04:29:29;98468.91;;;11.77;72.03
67397;BME280;57728;50.448;18.824;2023-05-03T04:31:32;98466.47;;;11.68;71.95
67397;BME280;57728;50.448;18.824;2023-05-03T04:33:34;98577.47;;;12.30;72.08
67397;BME280;57728;50.448;18.824;2023-05-03T04:35:40;98588.97;;;12.32;72.18
67397;BME280;57728;50.448;18.824;2023-05-03T04:37:50;98566.63;;;12.24;72.38
67397;BME280;57728;50.448;18.824;2023-05-03T04:39:56;98580.19;;;12.30;72.10
67397;BME280;57728;50.448;18.824;2023-05-03T04:41:57;98554.78;;;12.11;72.20
67397;BME280;57728;50.448;18.824;2023-05-03T04:44:00;98524.47;;;12.01;72.01
67397;BME280;57728;50.448;18.824;2023-05-03T04:46:03;98480.34;;;11.67;72.18
67397;BME280;57728;50.448;18.824;2023-05-03T04:48:05;98603.31;;;12.46;72.21
67397;BME280;57728;50.448;18.824;2023-05-03T04:50:07;98587.28;;;12.31;72.23
67397;BME280;57728;50.448;18.824;2023-05-03T04:52:13;98580.50;;;12.22;72.25
67397;BME280;57728;50.448;18.824;2023-05-03T04:54:18;98594.31;;;12.27;72.16
67397;BME280;57728;50.448;18.824;2023-05-03T04:56:20;98618.53;;;12.35;72.18
67397;BME280;57728;50.448;18.824;2023-05-03T04:58:28;98518.69;;;11.72;72.23
67397;BME280;57728;50.448;18.824;2023-05-03T05:00:31;98563.13;;;11.98;72.39
67397;BME280;57728;50.448;18.824;2023-05-03T05:02:38;98532.91;;;11.74;72.28
67397;BME280;57728;50.448;18.824;2023-05-03T05:04:41;98622.44;;;12.28;72.36
67397;BME280;57728;50.448;18.824;2023-05-03T05:06:43;98558.00;;;11.83;72.16
67397;BME280;57728;50.448;18.824;2023-05-03T05:08:49;98622.44;;;12.28;71.84
67397;BME280;57728;50.448;18.824;2023-05-03T05:10:52;98620.38;;;12.23;71.74
67397;BME280;57728;50.448;18.824;2023-05-03T05:12:58;98623.72;;;12.25;71.72
67397;BME280;57728;50.448;18.824;2023-05-03T05:15:00;98586.69;;;11.92;71.43
67397;BME280;57728;50.448;18.824;2023-05-03T05:17:06;98614.22;;;12.09;71.31
67397;BME280;57728;50.448;18.824;2023-05-03T05:19:08;98630.31;;;12.17;71.30
67397;BME280;57728;50.448;18.824;2023-05-03T05:21:09;98610.50;;;12.03;71.05
67397;BME280;57728;50.448;18.824;2023-05-03T05:23:14;98609.66;;;12.03;71.04
67397;BME280;57728;50.448;18.824;2023-05-03T05:25:18;98457.16;;;11.14;71.04
67397;BME280;57728;50.448;18.824;2023-05-03T05:27:20;98586.59;;;11.99;70.89
67397;BME280;57728;50.448;18.824;2023-05-03T05:29:23;98638.56;;;12.29;70.64
67397;BME280;57728;50.448;18.824;2023-05-03T05:31:24;98649.03;;;12.32;70.59
67397;BME280;57728;50.448;18.824;2023-05-03T05:33:26;98589.97;;;12.01;70.42
67397;BME280;57728;50.448;18.824;2023-05-03T05:35:28;98597.00;;;12.09;70.20
67397;BME280;57728;50.448;18.824;2023-05-03T05:37:30;98551.94;;;11.81;69.50
67397;BME280;57728;50.448;18.824;2023-05-03T05:39:34;98595.78;;;12.04;70.01
67397;BME280;57728;50.448;18.824;2023-05-03T05:41:36;98644.97;;;12.42;70.14
67397;BME280;57728;50.448;18.824;2023-05-03T05:43:38;98559.00;;;11.88;69.42
67397;BME280;57728;50.448;18.824;2023-05-03T05:45:39;98654.50;;;12.51;69.60
67397;BME280;57728;50.448;18.824;2023-05-03T05:47:41;98637.00;;;12.40;69.49
67397;BME280;57728;50.448;18.824;2023-05-03T05:49:43;98614.00;;;12.29;69.30
67397;BME280;57728;50.448;18.824;2023-05-03T05:51:46;98682.34;;;12.60;68.95
67397;BME280;57728;50.448;18.824;2023-05-03T05:53:48;98523.91;;;11.74;68.90
67397;BME280;57728;50.448;18.824;2023-05-03T05:55:50;98664.06;;;12.60;68.93
67397;BME280;57728;50.448;18.824;2023-05-03T05:57:52;98646.69;;;12.54;68.81
67397;BME280;57728;50.448;18.824;2023-05-03T05:59:58;98670.88;;;12.69;68.93
67397;BME280;57728;50.448;18.824;2023-05-03T06:02:13;98640.38;;;12.54;68.16
67397;BME280;57728;50.448;18.824;2023-05-03T06:04:20;98611.34;;;12.41;68.32
67397;BME280;57728;50.448;18.824;2023-05-03T06:06:22;98661.53;;;12.77;68.23
67397;BME280;57728;50.448;18.824;2023-05-03T06:08:26;98665.03;;;12.84;68.33
67397;BME280;57728;50.448;18.824;2023-05-03T06:10:29;98645.38;;;12.76;67.93
67397;BME280;57728;50.448;18.824;2023-05-03T06:12:32;98675.41;;;12.94;67.85
67397;BME280;57728;50.448;18.824;2023-05-03T06:14:34;98674.94;;;12.97;67.87
67397;BME280;57728;50.448;18.824;2023-05-03T06:16:36;98667.34;;;12.99;67.37
67397;BME280;57728;50.448;18.824;2023-05-03T06:18:40;98591.56;;;12.46;67.28
67397;BME280;57728;50.448;18.824;2023-05-03T06:20:42;98561.53;;;12.27;66.96
67397;BME280;57728;50.448;18.824;2023-05-03T06:22:43;98671.00;;;12.93;67.19
67397;BME280;57728;50.448;18.824;2023-05-03T06:24:46;98641.13;;;12.80;66.77
67397;BME280;57728;50.448;18.824;2023-05-03T06:26:48;98542.13;;;12.17;66.33
67397;BME280;57728;50.448;18.824;2023-05-03T06:28:49;98657.75;;;12.78;66.52
67397;BME280;57728;50.448;18.824;2023-05-03T06:30:53;98643.72;;;12.75;66.69
67397;BME280;57728;50.448;18.824;2023-05-03T06:32:54;98662.56;;;12.95;67.26
67397;BME280;57728;50.448;18.824;2023-05-03T06:34:55;98652.69;;;13.12;66.38
67397;BME280;57728;50.448;18.824;2023-05-03T06:37:00;98610.91;;;12.75;65.81
67397;BME280;57728;50.448;18.824;2023-05-03T06:39:02;98658.31;;;13.29;65.69
67397;BME280;57728;50.448;18.824;2023-05-03T06:41:04;98690.53;;;13.57;66.02
67397;BME280;57728;50.448;18.824;2023-05-03T06:43:06;98693.41;;;13.74;65.98
67397;BME280;57728;50.448;18.824;2023-05-03T06:45:11;98639.22;;;13.53;65.34
67397;BME280;57728;50.448;18.824;2023-05-03T06:47:13;98695.34;;;13.98;64.84
67397;BME280;57728;50.448;18.824;2023-05-03T06:49:15;98608.56;;;13.51;63.73
67397;BME280;57728;50.448;18.824;2023-05-03T06:51:16;98699.03;;;14.03;64.06
67397;BME280;57728;50.448;18.824;2023-05-03T06:53:17;98552.47;;;13.18;63.59
67397;BME280;57728;50.448;18.824;2023-05-03T06:55:19;98661.63;;;13.73;63.62
67397;BME280;57728;50.448;18.824;2023-05-03T06:57:20;98675.59;;;14.07;63.49
67397;BME280;57728;50.448;18.824;2023-05-03T06:59:22;98661.19;;;14.00;63.51
67397;BME280;57728;50.448;18.824;2023-05-03T07:01:27;98685.22;;;14.22;63.23
67397;BME280;57728;50.448;18.824;2023-05-03T07:03:29;98679.25;;;14.25;62.98
67397;BME280;57728;50.448;18.824;2023-05-03T07:05:31;98565.72;;;13.68;62.52
67397;BME280;57728;50.448;18.824;2023-05-03T07:07:33;98685.56;;;14.49;62.15
67397;BME280;57728;50.448;18.824;2023-05-03T07:09:34;98714.88;;;14.60;61.97
67397;BME280;57728;50.448;18.824;2023-05-03T07:11:35;98683.06;;;14.36;61.68
67397;BME280;57728;50.448;18.824;2023-05-03T07:13:39;98663.22;;;14.17;61.80
67397;BME280;57728;50.448;18.824;2023-05-03T07:15:41;98694.06;;;14.24;61.31
67397;BME280;57728;50.448;18.824;2023-05-03T07:17:42;98631.06;;;13.76;61.56
67397;BME280;57728;50.448;18.824;2023-05-03T07:19:44;98728.47;;;14.20;62.17
67397;BME280;57728;50.448;18.824;2023-05-03T07:21:45;98654.38;;;13.79;62.42
67397;BME280;57728;50.448;18.824;2023-05-03T07:23:46;98706.19;;;14.04;62.10
67397;BME280;57728;50.448;18.824;2023-05-03T07:25:48;98721.41;;;14.00;62.10
67397;BME280;57728;50.448;18.824;2023-05-03T07:27:50;98701.41;;;13.88;62.19
67397;BME280;57728;50.448;18.824;2023-05-03T07:29:51;98725.22;;;13.87;62.36
67397;BME280;57728;50.448;18.824;2023-05-03T07:31:53;98637.25;;;13.30;62.59
67397;BME280;57728;50.448;18.824;2023-05-03T07:33:55;98674.56;;;13.54;62.66
67397;BME280;57728;50.448;18.824;2023-05-03T07:35:56;98709.94;;;13.68;62.33
67397;BME280;57728;50.448;18.824;2023-05-03T07:37:58;98725.63;;;13.72;62.00
67397;BME280;57728;50.448;18.824;2023-05-03T07:39:59;98563.97;;;12.66;62.15
67397;BME280;57728;50.448;18.824;2023-05-03T07:42:01;98667.94;;;13.32;62.50
67397;BME280;57728;50.448;18.824;2023-05-03T07:44:03;98697.78;;;13.52;62.79
67397;BME280;57728;50.448;18.824;2023-05-03T07:46:04;98722.31;;;13.70;61.91
67397;BME280;57728;50.448;18.824;2023-05-03T07:48:05;98697.53;;;13.53;62.06
67397;BME280;57728;50.448;18.824;2023-05-03T07:50:08;98692.53;;;13.50;62.08
67397;BME280;57728;50.448;18.824;2023-05-03T07:52:10;98706.81;;;13.64;62.18
67397;BME280;57728;50.448;18.824;2023-05-03T07:54:11;98736.13;;;13.75;62.06
67397;BME280;57728;50.448;18.824;2023-05-03T07:56:15;98684.78;;;13.47;61.89
67397;BME280;57728;50.448;18.824;2023-05-03T07:58:16;98625.09;;;13.14;61.62
67397;BME280;57728;50.448;18.824;2023-05-03T08:00:17;98610.56;;;13.01;61.65
67397;BME280;57728;50.448;18.824;2023-05-03T08:02:19;98528.50;;;12.47;61.39
67397;BME280;57728;50.448;18.824;2023-05-03T08:04:22;98660.38;;;13.46;61.92
67397;BME280;57728;50.448;18.824;2023-05-03T08:06:23;98716.91;;;13.94;61.89
67397;BME280;57728;50.448;18.824;2023-05-03T08:08:26;98600.88;;;13.29;61.40
67397;BME280;57728;50.448;18.824;2023-05-03T08:10:28;98537.72;;;13.07;60.88
67397;BME280;57728;50.448;18.824;2023-05-03T08:12:30;98690.59;;;14.17;60.80
67397;BME280;57728;50.448;18.824;2023-05-03T08:14:32;98663.31;;;13.98;60.64
67397;BME280;57728;50.448;18.824;2023-05-03T08:16:33;98686.53;;;14.43;60.18
67397;BME280;57728;50.448;18.824;2023-05-03T08:18:34;98575.97;;;13.85;59.87
67397;BME280;57728;50.448;18.824;2023-05-03T08:20:36;98602.47;;;14.08;59.17
67397;BME280;57728;50.448;18.824;2023-05-03T08:22:39;98619.16;;;14.18;59.48
67397;BME280;57728;50.448;18.824;2023-05-03T08:24:41;98722.19;;;15.07;59.06
67397;BME280;57728;50.448;18.824;2023-05-03T08:26:44;98729.41;;;15.13;58.00
67397;BME280;57728;50.448;18.824;2023-05-03T08:28:46;98605.41;;;14.42;57.40
67397;BME280;57728;50.448;18.824;2023-05-03T08:30:47;98696.81;;;14.88;55.71
67397;BME280;57728;50.448;18.824;2023-05-03T08:32:50;98639.69;;;14.44;56.43
67397;BME280;57728;50.448;18.824;2023-05-03T08:34:54;98569.66;;;13.96;56.28
67397;BME280;57728;50.448;18.824;2023-05-03T08:36:56;98735.94;;;14.84;56.16
67397;BME280;57728;50.448;18.824;2023-05-03T08:39:00;98704.84;;;14.54;56.43
67397;BME280;57728;50.448;18.824;2023-05-03T08:41:29;98732.94;;;14.61;56.48
67397;BME280;57728;50.448;18.824;2023-05-03T08:43:37;98714.75;;;14.43;56.78
67397;BME280;57728;50.448;18.824;2023-05-03T08:45:44;98615.97;;;13.86;56.69
67397;BME280;57728;50.448;18.824;2023-05-03T08:47:52;98570.50;;;13.61;56.87
67397;BME280;57728;50.448;18.824;2023-05-03T08:49:55;98742.50;;;14.83;56.72
67397;BME280;57728;50.448;18.824;2023-05-03T08:51:59;98661.28;;;14.41;56.50
67397;BME280;57728;50.448;18.824;2023-05-03T08:54:02;98753.28;;;15.01;56.31
67397;BME280;57728;50.448;18.824;2023-05-03T08:56:09;98751.72;;;15.05;55.56
67397;BME280;57728;50.448;18.824;2023-05-03T08:58:13;98746.28;;;14.93;55.69
67397;BME280;57728;50.448;18.824;2023-05-03T09:00:14;98703.53;;;14.81;55.39
67397;BME280;57728;50.448;18.824;2023-05-03T09:02:18;98655.28;;;14.56;55.36
67397;BME280;57728;50.448;18.824;2023-05-03T09:04:31;98652.81;;;14.66;55.47
67397;BME280;57728;50.448;18.824;2023-05-03T09:06:35;98623.50;;;14.55;55.15
67397;BME280;57728;50.448;18.824;2023-05-03T09:08:41;98663.69;;;14.90;54.74
67397;BME280;57728;50.448;18.824;2023-05-03T09:10:44;98719.50;;;15.24;54.40
67397;BME280;57728;50.448;18.824;2023-05-03T09:12:45;98750.06;;;15.45;53.91
67397;BME280;57728;50.448;18.824;2023-05-03T09:14:46;98617.03;;;14.61;53.02
67397;BME280;57728;50.448;18.824;2023-05-03T09:16:48;98728.44;;;15.48;52.97
67397;BME280;57728;50.448;18.824;2023-05-03T09:19:03;98701.25;;;15.47;52.80
67397;BME280;57728;50.448;18.824;2023-05-03T09:21:18;98689.03;;;15.55;52.23
67397;BME280;57728;50.448;18.824;2023-05-03T09:23:28;98750.41;;;15.94;51.92
67397;BME280;57728;50.448;18.824;2023-05-03T09:25:48;98751.84;;;15.97;51.81
67397;BME280;57728;50.448;18.824;2023-05-03T09:28:00;98725.78;;;15.82;51.94
67397;BME280;57728;50.448;18.824;2023-05-03T09:30:17;98750.00;;;16.03;51.04
67397;BME280;57728;50.448;18.824;2023-05-03T09:32:20;98760.69;;;15.99;50.66
67397;BME280;57728;50.448;18.824;2023-05-03T09:34:22;98737.84;;;15.81;50.92
67397;BME280;57728;50.448;18.824;2023-05-03T09:36:25;98707.75;;;15.58;51.05
67397;BME280;57728;50.448;18.824;2023-05-03T09:38:32;98718.16;;;15.56;51.35
67397;BME280;57728;50.448;18.824;2023-05-03T09:40:45;98686.00;;;15.39;52.14
67397;BME280;57728;50.448;18.824;2023-05-03T09:43:08;98690.19;;;15.42;51.25
67397;BME280;57728;50.448;18.824;2023-05-03T09:45:22;98747.09;;;15.92;51.34
67397;BME280;57728;50.448;18.824;2023-05-03T09:47:24;98702.50;;;15.85;51.85
67397;BME280;57728;50.448;18.824;2023-05-03T09:49:26;98723.19;;;16.27;51.45
67397;BME280;57728;50.448;18.824;2023-05-03T09:51:27;98732.00;;;16.63;50.84
67397;BME280;57728;50.448;18.824;2023-05-03T09:53:31;98751.59;;;16.89;49.58
67397;BME280;57728;50.448;18.824;2023-05-03T09:55:39;98659.16;;;16.43;49.34
67397;BME280;57728;50.448;18.824;2023-05-03T09:57:42;98682.28;;;16.70;48.66
67397;BME280;57728;50.448;18.824;2023-05-03T09:59:47;98611.88;;;16.24;47.64
67397;BME280;57728;50.448;18.824;2023-05-03T10:01:56;98758.78;;;17.12;47.68
67397;BME280;57728;50.448;18.824;2023-05-03T10:04:01;98608.25;;;16.19;47.65
67397;BME280;57728;50.448;18.824;2023-05-03T10:06:07;98653.34;;;16.62;48.11
67397;BME280;57728;50.448;18.824;2023-05-03T10:08:30;98755.13;;;17.50;47.99
67397;BME280;57728;50.448;18.824;2023-05-03T10:10:41;98750.44;;;17.51;47.40
67397;BME280;57728;50.448;18.824;2023-05-03T10:12:45;98659.78;;;16.90;47.42
67397;BME280;57728;50.448;18.824;2023-05-03T10:14:52;98630.91;;;16.70;47.21
67397;BME280;57728;50.448;18.824;2023-05-03T10:17:08;98609.59;;;16.38;47.46
67397;BME280;57728;50.448;18.824;2023-05-03T10:19:42;98757.19;;;17.38;47.20
67397;BME280;57728;50.448;18.824;2023-05-03T10:22:02;98755.94;;;17.51;47.58
67397;BME280;57728;50.448;18.824;2023-05-03T10:24:11;98725.91;;;17.49;47.31
67397;BME280;57728;50.448;18.824;2023-05-03T10:26:14;98722.19;;;17.61;46.85
67397;BME280;57728;50.448;18.824;2023-05-03T10:28:17;98684.56;;;17.44;45.94
67397;BME280;57728;50.448;18.824;2023-05-03T10:32:32;98754.69;;;17.91;45.75
67397;BME280;57728;50.448;18.824;2023-05-03T10:34:36;98766.22;;;17.88;46.11
67397;BME280;57728;50.448;18.824;2023-05-03T10:36:41;98744.38;;;17.81;45.69
67397;BME280;57728;50.448;18.824;2023-05-03T10:38:43;98682.88;;;17.16;45.06
67397;BME280;57728;50.448;18.824;2023-05-03T10:40:45;98722.75;;;17.13;45.36
67397;BME280;57728;50.448;18.824;2023-05-03T10:42:53;98645.16;;;16.45;46.49
67397;BME280;57728;50.448;18.824;2023-05-03T10:44:56;98690.09;;;16.56;47.73
67397;BME280;57728;50.448;18.824;2023-05-03T10:47:18;98756.25;;;17.05;47.59
67397;BME280;57728;50.448;18.824;2023-05-03T10:49:23;98721.25;;;16.83;47.72
67397;BME280;57728;50.448;18.824;2023-05-03T10:56:03;98694.16;;;16.92;47.24
67397;BME280;57728;50.448;18.824;2023-05-03T10:58:12;98737.81;;;17.28;46.58
67397;BME280;57728;50.448;18.824;2023-05-03T11:02:52;98761.06;;;17.42;46.41
67397;BME280;57728;50.448;18.824;2023-05-03T11:05:04;98699.44;;;16.94;46.51